createdAt,value
2018-08-13T00:01:19.547Z,97241.34
2018-08-13T00:03:49.768Z,97243.90
2018-08-13T00:06:19.990Z,97234.70
2018-08-13T00:08:50.079Z,97229.55
2018-08-13T00:11:20.347Z,97220.94
2018-08-13T00:13:50.378Z,97220.03
2018-08-13T00:16:19.311Z,97224.26
2018-08-13T00:18:49.408Z,97211.00
2018-08-13T00:21:18.015Z,97212.13
2018-08-13T00:23:47.379Z,97209.33
2018-08-13T00:26:16.742Z,97211.70
2018-08-13T00:28:45.441Z,97210.48
2018-08-13T00:31:14.191Z,97202.86
2018-08-13T00:33:42.923Z,97204.17
2018-08-13T00:36:12.633Z,97204.17
2018-08-13T00:38:41.940Z,97203.44
2018-08-13T00:41:11.866Z,97204.32
2018-08-13T00:43:41.406Z,97202.67
2018-08-13T00:46:10.975Z,97212.99
2018-08-13T00:48:41.250Z,97205.59
2018-08-13T00:51:09.894Z,97199.80
2018-08-13T00:53:39.890Z,97201.43
2018-08-13T00:56:09.410Z,97203.36
2018-08-13T00:58:38.438Z,97200.27
2018-08-13T01:01:08.547Z,97197.86
2018-08-13T01:03:37.969Z,97193.27
2018-08-13T01:06:07.011Z,97187.02
2018-08-13T01:08:35.710Z,97183.16
2018-08-13T01:11:05.122Z,97179.60
2018-08-13T01:13:36.390Z,97180.86
2018-08-13T01:16:05.719Z,97176.55
2018-08-13T01:18:34.356Z,97180.83
2018-08-13T01:21:03.168Z,97175.31
2018-08-13T01:23:33.308Z,97166.88
2018-08-13T01:26:01.956Z,97171.25
2018-08-13T01:28:30.879Z,97170.39
2018-08-13T01:31:01.520Z,97173.48
2018-08-13T01:33:30.309Z,97174.63
2018-08-13T01:36:01.877Z,97167.73
2018-08-13T01:38:31.984Z,97165.22
2018-08-13T01:41:00.868Z,97165.33
2018-08-13T01:43:29.505Z,97166.65
2018-08-13T01:45:58.944Z,97166.25
2018-08-13T01:48:27.618Z,97160.33
2018-08-13T01:50:57.186Z,97157.61
2018-08-13T01:53:26.403Z,97161.73
2018-08-13T01:55:55.219Z,97162.70
2018-08-13T01:58:24.814Z,97158.75
2018-08-13T02:00:53.443Z,97151.64
2018-08-13T02:03:22.276Z,97150.27
2018-08-13T02:05:51.710Z,97148.27
2018-08-13T02:08:20.588Z,97153.20
2018-08-13T02:10:49.982Z,97161.24
2018-08-13T02:13:19.322Z,97159.88
2018-08-13T02:15:49.360Z,97161.82
2018-08-13T02:18:19.807Z,97162.97
2018-08-13T02:20:49.838Z,97171.63
2018-08-13T02:23:19.200Z,97163.84
2018-08-13T02:25:48.997Z,97164.45
2018-08-13T02:28:19.590Z,97155.44
2018-08-13T02:30:48.936Z,97149.34
2018-08-13T02:33:18.842Z,97149.41
2018-08-13T02:35:48.219Z,97142.16
2018-08-13T02:38:17.345Z,97135.64
2018-08-13T02:40:46.145Z,97128.32
2018-08-13T02:43:15.579Z,97133.49
2018-08-13T02:45:45.145Z,97120.86
2018-08-13T02:48:13.902Z,97113.70
2018-08-13T02:50:42.649Z,97120.95
2018-08-13T02:53:12.047Z,97130.47
2018-08-13T02:55:42.078Z,97130.48
2018-08-13T02:58:11.085Z,97130.11
2018-08-13T03:00:40.633Z,97129.61
2018-08-13T03:03:09.362Z,97140.00
2018-08-13T03:05:38.058Z,97141.58
2018-08-13T03:08:07.105Z,97137.63
2018-08-13T03:10:43.279Z,97144.88
2018-08-13T03:13:11.900Z,97140.30
2018-08-13T03:15:41.741Z,97133.11
2018-08-13T03:18:10.642Z,97127.82
2018-08-13T03:20:40.219Z,97134.40
2018-08-13T03:23:10.552Z,97134.88
2018-08-13T03:25:39.602Z,97131.63
2018-08-13T03:28:09.688Z,97126.58
2018-08-13T03:30:39.049Z,97136.10
2018-08-13T03:33:08.399Z,97135.53
2018-08-13T03:35:37.732Z,97129.79
2018-08-13T03:38:07.113Z,97133.39
2018-08-13T03:40:37.419Z,97126.89
2018-08-13T03:43:06.319Z,97128.34
2018-08-13T03:45:34.985Z,97129.39
2018-08-13T03:48:03.833Z,97125.00
2018-08-13T03:50:32.596Z,97124.56
2018-08-13T03:53:01.216Z,97119.98
2018-08-13T03:55:31.498Z,97122.45
2018-08-13T03:58:01.545Z,97116.06
2018-08-13T04:00:30.916Z,97111.45
2018-08-13T04:03:00.371Z,97108.71
2018-08-13T04:05:30.279Z,97104.63
2018-08-13T04:07:59.077Z,97101.73
2018-08-13T04:10:27.793Z,97101.86
2018-08-13T04:12:56.837Z,97091.02
2018-08-13T04:15:25.924Z,97090.19
2018-08-13T04:17:54.552Z,97086.23
2018-08-13T04:20:23.253Z,97084.94
2018-08-13T04:22:51.897Z,97083.23
2018-08-13T04:25:20.511Z,97087.94
2018-08-13T04:27:49.237Z,97085.44
2018-08-13T04:30:18.658Z,97080.42
2018-08-13T04:32:48.070Z,97075.18
2018-08-13T04:35:16.704Z,97067.83
2018-08-13T04:37:46.408Z,97064.41
2018-08-13T04:40:16.495Z,97062.56
2018-08-13T04:42:46.439Z,97074.19
2018-08-13T04:45:15.881Z,97069.67
2018-08-13T04:47:52.198Z,97077.72
2018-08-13T04:50:21.820Z,97073.53
2018-08-13T04:52:50.760Z,97082.44
2018-08-13T04:55:20.349Z,97077.66
2018-08-13T04:57:50.847Z,97084.46
2018-08-13T05:00:19.502Z,97074.25
2018-08-13T05:02:48.112Z,97074.20
2018-08-13T05:05:16.824Z,97073.77
2018-08-13T05:07:45.616Z,97079.34
2018-08-13T05:10:14.292Z,97085.66
2018-08-13T05:12:42.897Z,97091.55
2018-08-13T05:15:12.146Z,97087.84
2018-08-13T05:17:40.798Z,97076.19
2018-08-13T05:20:10.347Z,97074.55
2018-08-13T05:22:40.337Z,97069.98
2018-08-13T05:25:10.972Z,97077.07
2018-08-13T05:27:40.381Z,97075.12
2018-08-13T05:30:10.539Z,97069.61
2018-08-13T05:32:39.212Z,97076.64
2018-08-13T05:35:08.709Z,97083.92
2018-08-13T05:37:37.768Z,97084.58
2018-08-13T05:40:07.924Z,97079.67
2018-08-13T05:42:36.725Z,97079.60
2018-08-13T05:45:06.468Z,97081.03
2018-08-13T05:47:35.596Z,97082.72
2018-08-13T05:50:05.089Z,97089.60
2018-08-13T05:52:33.821Z,97091.20
2018-08-13T05:55:02.528Z,97100.69
2018-08-13T05:57:31.186Z,97106.16
2018-08-13T05:59:59.910Z,97109.48
2018-08-13T06:02:33.278Z,97103.59
2018-08-13T06:05:02.003Z,97121.39
2018-08-13T06:07:30.724Z,97117.78
2018-08-13T06:09:59.543Z,97118.74
2018-08-13T06:12:28.158Z,97113.59
2018-08-13T06:14:57.615Z,97121.45
2018-08-13T06:17:26.880Z,97126.72
2018-08-13T06:19:55.563Z,97133.56
2018-08-13T06:22:24.789Z,97141.09
2018-08-13T06:24:53.981Z,97133.02
2018-08-13T06:27:23.362Z,97133.72
2018-08-13T06:29:52.050Z,97127.24
2018-08-13T06:32:20.684Z,97120.98
2018-08-13T06:34:49.946Z,97126.15
2018-08-13T06:37:18.655Z,97125.63
2018-08-13T06:39:47.687Z,97125.34
2018-08-13T06:42:16.358Z,97137.17
2018-08-13T06:44:46.457Z,97139.40
2018-08-13T06:47:16.005Z,97137.16
2018-08-13T06:49:44.682Z,97135.91
2018-08-13T06:52:13.406Z,97149.70
2018-08-13T06:54:43.028Z,97147.36
2018-08-13T06:57:11.698Z,97140.30
2018-08-13T06:59:40.347Z,97147.56
2018-08-13T07:02:09.345Z,97150.06
2018-08-13T07:04:38.030Z,97143.58
2018-08-13T07:07:06.874Z,97141.95
2018-08-13T07:09:35.605Z,97150.58
2018-08-13T07:12:04.447Z,97156.99
2018-08-13T07:14:33.069Z,97160.91
2018-08-13T07:17:01.753Z,97169.95
2018-08-13T07:19:30.436Z,97174.05
2018-08-13T07:21:59.154Z,97180.11
2018-08-13T07:24:28.513Z,97185.81
2018-08-13T07:26:57.230Z,97201.89
2018-08-13T07:29:25.950Z,97203.48
2018-08-13T07:31:54.604Z,97210.55
2018-08-13T07:34:23.277Z,97214.31
2018-08-13T07:36:51.940Z,97224.50
2018-08-13T07:39:20.844Z,97224.52
2018-08-13T07:41:49.583Z,97222.78
2018-08-13T07:44:18.885Z,97225.13
2018-08-13T07:46:48.262Z,97227.16
2018-08-13T07:49:19.393Z,97228.40
2018-08-13T07:51:50.077Z,97228.41
2018-08-13T07:54:19.193Z,97219.21
2018-08-13T07:56:47.888Z,97226.08
2018-08-13T07:59:17.419Z,97238.05
2018-08-13T08:01:47.301Z,97223.33
2018-08-13T08:04:16.057Z,97220.38
2018-08-13T08:06:45.423Z,97208.00
2018-08-13T08:09:14.517Z,97204.88
2018-08-13T08:11:43.187Z,97206.63
2018-08-13T08:14:12.488Z,97213.31
2018-08-13T08:16:41.351Z,97214.86
2018-08-13T08:19:10.982Z,97222.08
2018-08-13T08:21:41.252Z,97227.23
2018-08-13T08:24:10.101Z,97239.00
2018-08-13T08:26:38.866Z,97238.37
2018-08-13T08:29:09.714Z,97240.09
2018-08-13T08:31:39.154Z,97245.96
2018-08-13T08:34:09.215Z,97246.97
2018-08-13T08:36:38.389Z,97247.16
2018-08-13T08:39:11.169Z,97252.84
2018-08-13T08:41:39.981Z,97241.87
2018-08-13T08:44:08.921Z,97251.14
2018-08-13T08:46:38.442Z,97246.25
2018-08-13T08:49:08.500Z,97257.73
2018-08-13T08:51:39.784Z,97263.38
2018-08-13T08:54:10.261Z,97264.73
2018-08-13T08:56:39.190Z,97267.82
2018-08-13T08:59:09.228Z,97267.73
2018-08-13T09:01:39.006Z,97259.33
2018-08-13T09:04:10.210Z,97252.49
2018-08-13T09:06:39.016Z,97263.32
2018-08-13T09:09:19.090Z,97272.28
2018-08-13T09:11:48.042Z,97275.40
2018-08-13T09:14:17.090Z,97277.50
2018-08-13T09:16:52.793Z,97289.30
2018-08-13T09:19:35.361Z,97297.55
2018-08-13T09:22:16.419Z,97296.64
2018-08-13T09:24:57.934Z,97298.09
2018-08-13T09:27:42.204Z,97304.58
2018-08-13T09:30:26.100Z,97316.14
2018-08-13T09:33:07.177Z,97228.55
2018-08-13T09:35:39.903Z,97316.79
2018-08-13T09:38:17.513Z,97325.06
2018-08-13T09:40:53.496Z,97328.14
2018-08-13T09:43:22.381Z,97331.99
2018-08-13T09:45:51.170Z,97329.08
2018-08-13T09:48:23.602Z,97330.28
2018-08-13T09:50:54.529Z,97324.86
2018-08-13T09:53:25.253Z,97327.42
2018-08-13T09:56:03.887Z,97326.25
2018-08-13T09:58:37.292Z,97325.53
2018-08-13T10:01:10.662Z,97327.42
2018-08-13T10:03:42.076Z,97323.84
2018-08-13T10:06:16.234Z,97319.72
2018-08-13T10:08:44.939Z,97318.36
2018-08-13T10:11:14.780Z,97324.07
2018-08-13T10:13:44.818Z,97322.09
2018-08-13T10:16:23.559Z,97317.08
2018-08-13T10:18:55.728Z,97319.03
2018-08-13T10:21:25.625Z,97313.58
2018-08-13T10:23:55.487Z,97315.66
2018-08-13T10:26:24.550Z,97324.91
2018-08-13T10:28:54.998Z,97323.01
2018-08-13T10:31:27.859Z,97323.96
2018-08-13T10:36:44.305Z,97318.41
2018-08-13T10:39:18.010Z,97314.44
2018-08-13T10:41:46.752Z,97318.98
2018-08-13T10:44:20.002Z,97319.08
2018-08-13T10:49:47.858Z,97317.56
2018-08-13T10:52:16.958Z,97316.55
2018-08-13T10:54:47.191Z,97309.29
2018-08-13T10:57:16.370Z,97311.41
2018-08-13T10:59:46.286Z,97315.06
2018-08-13T11:02:24.254Z,97315.02
2018-08-13T11:04:53.821Z,97326.96
2018-08-13T11:07:23.194Z,97316.55
2018-08-13T11:09:52.703Z,97299.50
2018-08-13T11:12:22.409Z,97286.45
2018-08-13T11:14:53.654Z,97290.07
2018-08-13T11:17:22.804Z,97294.80
2018-08-13T11:19:51.981Z,97287.94
2018-08-13T11:22:21.602Z,97294.59
2018-08-13T11:24:50.773Z,97284.41
2018-08-13T11:27:19.815Z,97283.84
2018-08-13T11:29:50.225Z,97276.44
2018-08-13T11:32:19.008Z,97282.92
2018-08-13T11:34:49.340Z,97271.95
2018-08-13T11:37:19.863Z,97264.33
2018-08-13T11:39:48.609Z,97257.13
2018-08-13T11:42:17.305Z,97257.87
2018-08-13T11:44:47.631Z,97262.53
2018-08-13T11:47:16.853Z,97265.70
2018-08-13T11:49:45.899Z,97263.68
2018-08-13T11:52:14.910Z,97265.59
2018-08-13T11:54:44.420Z,97248.16
2018-08-13T11:57:15.218Z,97247.35
2018-08-13T11:59:43.909Z,97245.56
2018-08-13T12:02:12.674Z,97249.45
2018-08-13T12:04:42.161Z,97247.73
2018-08-13T12:07:10.881Z,97254.97
2018-08-13T12:09:40.034Z,97248.48
2018-08-13T12:12:08.843Z,97247.69
2018-08-13T12:14:37.912Z,97239.77
2018-08-13T12:17:07.353Z,97237.46
2018-08-13T12:19:36.290Z,97240.39
2018-08-13T12:22:05.129Z,97228.23
2018-08-13T12:24:33.945Z,97224.27
2018-08-13T12:27:03.131Z,97219.62
2018-08-13T12:29:32.910Z,97224.91
2018-08-13T12:32:01.746Z,97217.70
2018-08-13T12:34:31.063Z,97228.21
2018-08-13T12:37:05.287Z,97226.17
2018-08-13T12:39:34.325Z,97223.87
2018-08-13T12:42:03.175Z,97221.48
2018-08-13T12:44:32.212Z,97207.56
2018-08-13T12:47:02.250Z,97206.62
2018-08-13T12:49:32.302Z,97203.09
2018-08-13T12:52:01.658Z,97201.89
2018-08-13T12:54:30.535Z,97201.00
2018-08-13T12:57:00.002Z,97196.58
2018-08-13T12:59:29.015Z,97194.93
2018-08-13T13:01:59.232Z,97199.85
2018-08-13T13:04:28.461Z,97205.22
2018-08-13T13:06:57.680Z,97194.53
2018-08-13T13:09:27.583Z,97194.66
2018-08-13T13:11:56.356Z,97196.05
2018-08-13T13:14:25.419Z,97205.41
2018-08-13T13:16:55.077Z,97204.47
2018-08-13T13:19:25.031Z,97201.98
2018-08-13T13:21:53.924Z,97203.91
2018-08-13T13:24:23.296Z,97210.74
2018-08-13T13:26:51.989Z,97207.61
2018-08-13T13:29:20.824Z,97201.28
2018-08-13T13:31:50.109Z,97204.43
2018-08-13T13:34:18.826Z,97191.03
2018-08-13T13:36:48.198Z,97192.33
2018-08-13T13:39:18.074Z,97185.05
2018-08-13T13:41:47.138Z,97180.26
2018-08-13T13:44:17.041Z,97177.50
2018-08-13T13:46:46.393Z,97184.26
2018-08-13T13:49:15.202Z,97171.49
2018-08-13T13:51:44.728Z,97175.48
2018-08-13T13:54:14.229Z,97174.23
2018-08-13T13:56:43.167Z,97182.08
2018-08-13T13:59:11.840Z,97178.42
2018-08-13T14:01:40.484Z,97174.91
2018-08-13T14:04:09.279Z,97176.59
2018-08-13T14:06:38.576Z,97175.19
2018-08-13T14:09:10.098Z,97172.77
2018-08-13T14:11:38.966Z,97188.89
2018-08-13T14:14:08.443Z,97182.17
2018-08-13T14:16:37.187Z,97172.63
2018-08-13T14:19:06.727Z,97163.33
2018-08-13T14:21:36.299Z,97157.89
2018-08-13T14:24:05.540Z,97157.13
2018-08-13T14:26:34.278Z,97147.39
2018-08-13T14:29:04.448Z,97138.23
2018-08-13T14:31:34.843Z,97142.52
2018-08-13T14:34:04.236Z,97137.75
2018-08-13T14:36:32.964Z,97129.53
2018-08-13T14:39:02.222Z,97124.38
2018-08-13T14:41:31.577Z,97109.08
2018-08-13T14:44:00.673Z,97106.05
2018-08-13T14:46:29.803Z,97104.22
2018-08-13T14:48:59.360Z,97107.77
2018-08-13T14:51:28.314Z,97117.02
2018-08-13T14:53:57.530Z,97113.23
2018-08-13T14:56:26.823Z,97109.57
2018-08-13T14:58:55.577Z,97108.38
2018-08-13T15:01:24.290Z,97108.19
2018-08-13T15:03:53.112Z,97106.88
2018-08-13T15:06:22.375Z,97115.80
2018-08-13T15:08:51.083Z,97120.37
2018-08-13T15:11:19.937Z,97117.53
2018-08-13T15:13:49.428Z,97121.47
2018-08-13T15:16:18.763Z,97116.39
2018-08-13T15:18:47.887Z,97117.17
2018-08-13T15:21:16.688Z,97111.34
2018-08-13T15:23:45.540Z,97107.55
2018-08-13T15:26:15.584Z,97115.30
2018-08-13T15:28:44.458Z,97113.13
2018-08-13T15:31:13.142Z,97113.55
2018-08-13T15:33:42.952Z,97111.09
2018-08-13T15:36:13.375Z,97118.66
2018-08-13T15:38:42.947Z,97119.53
2018-08-13T15:41:11.632Z,97119.25
2018-08-13T15:43:40.767Z,97129.52
2018-08-13T15:46:22.245Z,97127.36
2018-08-13T15:48:55.580Z,97128.78
2018-08-13T15:51:26.557Z,97119.09
2018-08-13T15:53:56.679Z,97112.45
2018-08-13T15:56:27.931Z,97107.63
2018-08-13T15:58:57.526Z,97099.08
2018-08-13T16:01:26.400Z,97093.80
2018-08-13T16:03:56.439Z,97098.34
2018-08-13T16:06:28.256Z,97094.56
2018-08-13T16:08:58.527Z,97101.59
2018-08-13T16:11:27.377Z,97099.85
2018-08-13T16:13:58.969Z,97101.47
2018-08-13T16:16:29.769Z,97092.36
2018-08-13T16:19:02.079Z,97103.81
2018-08-13T16:21:30.923Z,97098.80
2018-08-13T16:24:02.266Z,97097.86
2018-08-13T16:26:32.985Z,97098.28
2018-08-13T16:29:03.711Z,97088.47
2018-08-13T16:31:32.600Z,97095.75
2018-08-13T16:34:02.124Z,97105.73
2018-08-13T16:36:31.751Z,97100.20
2018-08-13T16:39:00.490Z,97091.38
2018-08-13T16:41:34.418Z,97103.61
2018-08-13T16:44:05.507Z,97113.56
2018-08-13T16:46:36.317Z,97116.23
2018-08-13T16:49:15.275Z,97110.69
2018-08-13T16:51:45.296Z,97111.13
2018-08-13T16:54:15.401Z,97113.45
2018-08-13T16:56:44.734Z,97112.52
2018-08-13T16:59:15.851Z,97118.35
2018-08-13T17:01:47.540Z,97121.47
2018-08-13T17:04:21.796Z,97130.33
2018-08-13T17:06:55.455Z,97135.00
2018-08-13T17:09:30.248Z,97135.27
2018-08-13T17:12:02.576Z,97136.13
2018-08-13T17:14:34.173Z,97139.52
2018-08-13T17:17:10.775Z,97133.50
2018-08-13T17:23:13.253Z,97134.79
2018-08-13T17:25:44.666Z,97131.83
2018-08-13T17:28:16.157Z,97134.66
2018-08-13T17:33:21.623Z,97124.16
2018-08-13T17:35:50.370Z,97125.23
2018-08-13T17:38:19.112Z,97131.72
2018-08-13T17:40:47.900Z,97135.21
2018-08-13T17:43:16.868Z,97142.47
2018-08-13T17:45:46.270Z,97147.14
2018-08-13T17:48:14.975Z,97147.22
2018-08-13T17:50:43.716Z,97144.09
2018-08-13T17:53:12.352Z,97146.52
2018-08-13T17:55:41.237Z,97150.33
2018-08-13T17:58:10.363Z,97154.02
2018-08-13T18:00:40.996Z,97150.39
2018-08-13T18:03:10.306Z,97150.33
2018-08-13T18:05:39.262Z,97155.27
2018-08-13T18:08:08.318Z,97152.87
2018-08-13T18:10:37.871Z,97156.02
2018-08-13T18:13:08.661Z,97160.28
2018-08-13T18:15:37.477Z,97159.50
2018-08-13T18:18:06.423Z,97162.19
2018-08-13T18:20:35.377Z,97160.86
2018-08-13T18:23:04.775Z,97167.70
2018-08-13T18:25:33.554Z,97166.19
2018-08-13T18:28:02.327Z,97173.98
2018-08-13T18:30:31.141Z,97175.84
2018-08-13T18:32:59.869Z,97186.45
2018-08-13T18:35:29.030Z,97192.14
2018-08-13T18:37:58.101Z,97187.47
2018-08-13T18:40:31.089Z,97183.00
2018-08-13T18:42:59.879Z,97188.45
2018-08-13T18:45:28.859Z,97199.45
2018-08-13T18:47:57.999Z,97208.58
2018-08-13T18:50:28.955Z,97209.53
2018-08-13T18:52:57.697Z,97213.63
2018-08-13T18:55:26.818Z,97218.75
2018-08-13T18:57:56.064Z,97218.20
2018-08-13T19:00:30.368Z,97215.20
2018-08-13T19:03:01.526Z,97218.25
2018-08-13T19:05:33.127Z,97220.22
2018-08-13T19:08:03.840Z,97215.73
2018-08-13T19:10:40.007Z,97214.27
2018-08-13T19:13:11.436Z,97224.31
2018-08-13T19:15:42.997Z,97233.20
2018-08-13T19:18:14.257Z,97237.09
2018-08-13T19:20:43.208Z,97229.59
2018-08-13T19:23:13.390Z,97231.92
2018-08-13T19:25:44.008Z,97243.19
2018-08-13T19:28:17.501Z,97247.72
2018-08-13T19:30:49.478Z,97254.55
2018-08-13T19:33:18.901Z,97249.83
2018-08-13T19:35:55.084Z,97256.30
2018-08-13T19:38:35.622Z,97256.30
2018-08-13T19:41:05.940Z,97249.08
2018-08-13T19:43:35.880Z,97251.87
2018-08-13T19:46:07.732Z,97251.40
2018-08-13T19:48:38.171Z,97262.34
2018-08-13T19:51:07.270Z,97258.13
2018-08-13T19:53:35.966Z,97249.97
2018-08-13T19:56:04.850Z,97246.34
2018-08-13T19:58:34.086Z,97238.70
2018-08-13T20:01:03.491Z,97239.18
2018-08-13T20:03:32.489Z,97243.65
2018-08-13T20:06:01.325Z,97247.81
2018-08-13T20:08:30.683Z,97245.65
2018-08-13T20:11:00.333Z,97248.59
2018-08-13T20:13:29.071Z,97251.59
2018-08-13T20:15:57.740Z,97250.66
2018-08-13T20:18:26.517Z,97249.45
2018-08-13T20:20:55.201Z,97251.13
2018-08-13T20:23:23.874Z,97252.17
2018-08-13T20:25:52.602Z,97252.38
2018-08-13T20:28:21.369Z,97256.87
2018-08-13T20:30:50.115Z,97260.06
2018-08-13T20:33:18.948Z,97260.11
2018-08-13T20:35:47.738Z,97256.17
2018-08-13T20:38:16.523Z,97258.86
2018-08-13T20:40:47.160Z,97255.26
2018-08-13T20:43:16.777Z,97259.20
2018-08-13T20:45:46.298Z,97262.86
2018-08-13T20:48:15.032Z,97257.48
2018-08-13T20:50:43.721Z,97264.95
2018-08-13T20:53:12.527Z,97269.91
2018-08-13T20:55:41.345Z,97272.85
2018-08-13T20:58:10.030Z,97273.45
2018-08-13T21:00:38.983Z,97275.40
2018-08-13T21:03:07.664Z,97281.37
2018-08-13T21:05:36.353Z,97281.89
2018-08-13T21:08:05.972Z,97285.78
2018-08-13T21:10:38.853Z,97286.93
2018-08-13T21:13:07.906Z,97288.51
2018-08-13T21:15:37.258Z,97290.24
2018-08-13T21:18:07.397Z,97301.52
2018-08-13T21:20:37.833Z,97301.21
2018-08-13T21:23:07.030Z,97298.84
2018-08-13T21:25:37.117Z,97292.11
2018-08-13T21:28:06.394Z,97297.78
2018-08-13T21:30:36.202Z,97303.66
2018-08-13T21:33:05.108Z,97303.87
2018-08-13T21:35:33.830Z,97297.89
2018-08-13T21:38:03.278Z,97297.33
2018-08-13T21:40:32.065Z,97302.91
2018-08-13T21:43:01.731Z,97306.59
2018-08-13T21:45:30.935Z,97306.12
2018-08-13T21:48:00.769Z,97310.64
2018-08-13T21:50:30.099Z,97307.76
2018-08-13T21:52:59.840Z,97309.06
2018-08-13T21:55:29.424Z,97313.96
2018-08-13T21:57:59.015Z,97321.78
2018-08-13T22:01:32.892Z,97325.09
2018-08-13T22:04:02.441Z,97323.20
2018-08-13T22:06:31.760Z,97329.78
2018-08-13T22:09:02.380Z,97326.24
2018-08-13T22:11:32.038Z,97321.00
2018-08-13T22:14:00.980Z,97328.05
2018-08-13T22:16:31.201Z,97335.81
2018-08-13T22:19:00.874Z,97342.14
2018-08-13T22:21:30.395Z,97340.91
2018-08-13T22:24:10.430Z,97334.73
2018-08-13T22:26:39.609Z,97335.23
2018-08-13T22:29:09.000Z,97332.71
2018-08-13T22:31:39.005Z,97335.88
2018-08-13T22:34:09.853Z,97335.23
2018-08-13T22:36:38.465Z,97338.11
2018-08-13T22:39:09.276Z,97338.62
2018-08-13T22:41:38.193Z,97342.83
2018-08-13T22:44:07.095Z,97349.19
2018-08-13T22:46:37.188Z,97345.59
2018-08-13T22:49:06.015Z,97348.58
2018-08-13T22:51:34.768Z,97345.63
2018-08-13T22:54:03.984Z,97357.31
2018-08-13T22:56:32.665Z,97362.48
2018-08-13T22:59:05.576Z,97361.53
2018-08-13T23:01:34.724Z,97364.70
2018-08-13T23:04:03.882Z,97360.32
2018-08-13T23:06:33.263Z,97371.38
2018-08-13T23:09:02.212Z,97376.39
2018-08-13T23:11:30.809Z,97374.77
2018-08-13T23:14:00.167Z,97381.06
2018-08-13T23:16:30.241Z,97378.48
2018-08-13T23:18:59.787Z,97380.21
2018-08-13T23:21:29.123Z,97390.36
2018-08-13T23:23:57.821Z,97395.50
2018-08-13T23:26:26.583Z,97399.73
2018-08-13T23:28:55.282Z,97394.28
2018-08-13T23:31:24.660Z,97396.47
2018-08-13T23:33:54.713Z,97394.61
2018-08-13T23:36:24.876Z,97396.23
2018-08-13T23:38:53.653Z,97394.61
2018-08-13T23:41:22.914Z,97393.64
2018-08-13T23:43:52.328Z,97388.50
2018-08-13T23:46:21.115Z,97390.80
2018-08-13T23:48:51.538Z,97394.45
2018-08-13T23:51:20.258Z,97389.90
2018-08-13T23:53:49.724Z,97394.06
2018-08-13T23:56:23.774Z,97390.28
2018-08-13T23:58:52.678Z,97388.39
